Time;durP1;ratioP1;P1;durP2;ratioP2;P2;SDS_P1;SDS_P2;PMS_P1;PMS_P2;Temp;Humidity;BMP_temperature;BMP_pressure;BME280_temperature;BME280_humidity;BME280_pressure;Samples;Min_cycle;Max_cycle;Signal;HPM_P1;HPM_P2
2023/01/02 00:02:10;;;;;;;9.07;4.20;;;;;;;15.35;62.99;100953.47;4960643;28;123535;-71
2023/01/02 00:04:37;;;;;;;11.40;3.95;;;;;;;15.38;63.04;100947.91;4955173;28;114150;-71
2023/01/02 00:07:05;;;;;;;12.07;3.72;;;;;;;15.40;62.93;100937.13;4955388;28;114817;-71
2023/01/02 00:09:32;;;;;;;11.40;3.65;;;;;;;15.44;62.95;100946.66;4952041;28;123973;-71
2023/01/02 00:11:59;;;;;;;8.80;3.70;;;;;;;15.46;63.14;100938.56;4962415;28;123603;-71
2023/01/02 00:14:26;;;;;;;10.10;4.00;;;;;;;15.49;62.90;100946.38;4964855;28;114370;-70
2023/01/02 00:16:53;;;;;;;9.27;4.00;;;;;;;15.51;63.00;100936.47;4951710;28;114340;-71
2023/01/02 00:19:20;;;;;;;10.57;4.10;;;;;;;15.53;62.93;100945.22;4953825;28;124106;-71
2023/01/02 00:21:47;;;;;;;7.78;4.03;;;;;;;15.54;62.91;100942.47;4955477;28;124176;-71
2023/01/02 00:24:14;;;;;;;9.60;4.18;;;;;;;15.57;62.84;100946.72;4965523;28;113194;-71
2023/01/02 00:26:41;;;;;;;8.00;4.28;;;;;;;15.57;62.88;100947.59;4956888;28;113474;-71
2023/01/02 00:29:09;;;;;;;10.30;4.20;;;;;;;15.59;62.76;100944.81;4955614;28;123929;-71
2023/01/02 00:31:36;;;;;;;9.05;4.28;;;;;;;15.61;62.91;100942.91;4968049;28;122639;-71
2023/01/02 00:34:03;;;;;;;10.05;4.00;;;;;;;15.62;62.87;100928.63;4951205;28;114605;-71
2023/01/02 00:36:30;;;;;;;10.27;3.65;;;;;;;15.63;62.59;100922.28;4958595;28;113855;-70
2023/01/02 00:38:57;;;;;;;9.88;4.15;;;;;;;15.65;62.81;100912.41;4960978;28;123678;-70
2023/01/02 00:41:24;;;;;;;7.97;4.10;;;;;;;15.68;62.82;100916.69;4963744;28;124300;-70
2023/01/02 00:43:51;;;;;;;7.90;3.83;;;;;;;15.67;62.65;100915.81;4953178;28;114232;-71
2023/01/02 00:46:18;;;;;;;9.88;4.38;;;;;;;15.69;62.66;100913.91;4955718;28;113325;-71
2023/01/02 00:48:45;;;;;;;8.45;3.38;;;;;;;15.69;62.75;100913.91;4953035;28;124230;-71
2023/01/02 00:51:12;;;;;;;8.27;3.85;;;;;;;15.70;62.76;100910.28;4953094;28;124679;-71
2023/01/02 00:53:39;;;;;;;11.38;3.67;;;;;;;15.72;62.77;100912.84;4957055;28;115286;-71
2023/01/02 00:56:06;;;;;;;8.85;3.90;;;;;;;15.73;62.50;100910.09;4958207;28;114745;-71
2023/01/02 00:58:34;;;;;;;8.27;4.15;;;;;;;15.75;62.65;100904.69;4949110;28;124573;-71
2023/01/02 01:01:01;;;;;;;7.60;3.67;;;;;;;15.76;62.67;100909.03;4955379;28;124786;-70
2023/01/02 01:03:29;;;;;;;9.40;3.60;;;;;;;15.77;62.16;100906.28;4962128;28;114683;-71
2023/01/02 01:05:56;;;;;;;9.65;3.55;;;;;;;15.79;62.54;100900.00;4954555;28;113198;-71
2023/01/02 01:08:23;;;;;;;9.30;3.30;;;;;;;15.81;62.53;100906.09;4953154;28;124578;-71
2023/01/02 01:10:50;;;;;;;9.05;3.70;;;;;;;15.83;62.42;100904.16;4965671;28;124037;-71
2023/01/02 01:13:17;;;;;;;11.15;3.65;;;;;;;15.83;62.45;100896.16;4964146;28;113966;-71
2023/01/02 01:15:44;;;;;;;7.82;3.53;;;;;;;15.85;62.31;100891.56;4949969;28;114370;-71
2023/01/02 01:18:11;;;;;;;8.75;3.38;;;;;;;15.85;62.36;100888.91;4954911;28;124044;-71
2023/01/02 01:20:39;;;;;;;9.73;3.78;;;;;;;15.85;62.43;100892.41;4956518;28;123946;-71
2023/01/02 01:23:06;;;;;;;7.97;3.45;;;;;;;15.87;62.33;100890.50;4957152;28;114731;-71
2023/01/02 01:25:33;;;;;;;9.27;3.40;;;;;;;15.89;62.25;100887.72;4961645;28;115015;-70
2023/01/02 01:28:00;;;;;;;7.35;3.22;;;;;;;15.90;62.34;100889.44;4956453;28;124455;-70
2023/01/02 01:30:27;;;;;;;8.73;3.50;;;;;;;15.92;62.32;100892.88;4954371;28;123960;-71
2023/01/02 01:32:54;;;;;;;10.02;3.85;;;;;;;15.94;62.34;100890.94;4953286;28;114288;-71
2023/01/02 01:35:21;;;;;;;8.73;3.60;;;;;;;15.95;62.28;100892.66;4949401;28;114489;-70
2023/01/02 01:37:48;;;;;;;8.35;3.60;;;;;;;15.96;62.29;100886.38;4960506;28;125212;-70
2023/01/02 01:40:15;;;;;;;7.28;3.13;;;;;;;15.98;62.35;100892.47;4948145;28;123867;-70
2023/01/02 01:42:42;;;;;;;8.13;3.45;;;;;;;16.01;62.47;100896.72;4951775;28;116051;-71
2023/01/02 01:45:14;;;;;;;7.45;3.13;;;;;;;16.03;62.27;100893.00;4952544;28;115769;-70
2023/01/02 01:47:51;;;;;;;9.48;3.20;;;;;;;16.05;62.24;100899.09;4952624;28;124161;-71
2023/01/02 01:50:32;;;;;;;10.40;2.97;;;;;;;16.06;62.36;100895.47;4952763;28;124264;-71
2023/01/02 01:53:18;;;;;;;6.88;2.92;;;;;;;16.08;62.11;100896.22;4953878;28;115029;-70
2023/01/02 01:55:57;;;;;;;9.82;3.55;;;;;;;16.10;62.13;100902.31;4954323;28;113849;-71
2023/01/02 01:58:40;;;;;;;11.48;3.22;;;;;;;16.10;62.02;100902.31;4957145;28;124807;-70
2023/01/02 02:01:12;;;;;;;13.05;3.47;;;;;;;16.12;62.13;100905.75;4964762;28;124597;-70
2023/01/02 02:03:43;;;;;;;8.63;2.85;;;;;;;16.12;61.95;100900.41;4949648;28;114828;-71
2023/01/02 02:06:10;;;;;;;6.55;2.97;;;;;;;16.13;62.15;100902.09;4954507;28;113339;-71
2023/01/02 02:08:53;;;;;;;10.40;3.13;;;;;;;16.15;62.20;100904.69;4957951;28;123770;-71
2023/01/02 02:11:21;;;;;;;7.38;3.22;;;;;;;16.17;62.35;100897.41;4954429;28;124679;-70
2023/01/02 02:13:49;;;;;;;8.38;2.92;;;;;;;16.19;62.25;100906.19;4960270;28;114043;-70
2023/01/02 02:16:23;;;;;;;7.63;2.85;;;;;;;16.21;62.36;100900.75;4958675;28;113414;-70
2023/01/02 02:19:03;;;;;;;8.57;3.22;;;;;;;16.22;62.39;100899.75;4952441;28;124380;-70
2023/01/02 02:21:51;;;;;;;9.52;2.80;;;;;;;16.23;62.39;100906.81;4950263;28;124611;-70
2023/01/02 02:24:35;;;;;;;10.77;2.90;;;;;;;16.24;62.47;100897.88;4962052;28;114643;-70
2023/01/02 02:27:40;;;;;;;8.00;2.90;;;;;;;16.25;62.42;100905.75;4954575;28;114499;-70
2023/01/02 02:30:13;;;;;;;8.07;3.10;;;;;;;16.27;62.41;100897.63;4945980;28;124631;-70
2023/01/02 02:32:56;;;;;;;6.63;3.20;;;;;;;16.26;62.43;100890.59;4958097;28;124113;-70
2023/01/02 02:35:42;;;;;;;9.73;3.03;;;;;;;16.27;62.38;100897.63;4951469;28;115291;-70
2023/01/02 02:38:21;;;;;;;6.05;2.85;;;;;;;16.29;62.58;100906.41;4951351;28;115159;-70
2023/01/02 02:41:02;;;;;;;6.15;2.78;;;;;;;16.30;62.50;100902.78;4945453;28;124004;-70
2023/01/02 02:43:51;;;;;;;5.13;2.85;;;;;;;16.31;62.38;100904.47;4948621;28;123508;-70
2023/01/02 02:46:29;;;;;;;10.30;3.20;;;;;;;16.32;62.51;100903.53;4948313;28;114316;-70
2023/01/02 02:48:59;;;;;;;10.55;3.17;;;;;;;16.32;62.39;100896.38;4951790;28;114093;-71
2023/01/02 02:51:47;;;;;;;7.15;2.78;;;;;;;16.32;62.32;100891.03;4956045;28;124293;-70
2023/01/02 02:54:21;;;;;;;7.90;2.80;;;;;;;16.33;62.26;100903.44;4955248;28;124095;-70
2023/01/02 02:56:51;;;;;;;8.48;2.78;;;;;;;16.34;62.47;100898.94;4959384;28;114250;-71
2023/01/02 02:59:19;;;;;;;10.57;3.38;;;;;;;16.35;62.48;100896.16;4955578;28;114576;-70
2023/01/02 03:01:46;;;;;;;7.32;3.10;;;;;;;16.35;62.57;100898.84;4953941;28;124998;-70
2023/01/02 03:04:21;;;;;;;9.15;2.90;;;;;;;16.34;62.59;100898.94;4949285;28;125256;-70
2023/01/02 03:07:04;;;;;;;10.35;2.90;;;;;;;16.34;62.35;100893.59;4956833;28;114382;-70
2023/01/02 03:09:43;;;;;;;9.25;2.85;;;;;;;16.34;62.52;100893.59;4952541;28;114139;-70
2023/01/02 03:12:28;;;;;;;6.28;3.20;;;;;;;16.33;62.31;100899.88;4956730;28;124442;-70
2023/01/02 03:15:07;;;;;;;8.38;3.17;;;;;;;16.31;62.56;100899.13;4958446;28;123869;-70
2023/01/02 03:17:56;;;;;;;11.07;3.05;;;;;;;16.29;62.51;100895.72;4950754;28;113757;-70
2023/01/02 03:20:27;;;;;;;7.97;3.00;;;;;;;16.28;62.49;100900.22;4947281;28;113986;-70
2023/01/02 03:23:00;;;;;;;9.57;3.08;;;;;;;16.28;62.59;100899.38;4952180;28;124212;-70
2023/01/02 03:25:28;;;;;;;8.85;2.88;;;;;;;16.28;62.50;100888.69;4952450;28;123622;-70
2023/01/02 03:27:59;;;;;;;6.75;2.35;;;;;;;16.27;62.72;100897.63;4947764;28;115285;-70
2023/01/02 03:30:28;;;;;;;7.75;2.80;;;;;;;16.27;62.44;100897.63;4957940;28;115167;-70
2023/01/02 03:33:07;;;;;;;5.63;2.92;;;;;;;16.28;62.63;100888.69;4953847;28;125073;-70
2023/01/02 03:35:38;;;;;;;5.75;2.70;;;;;;;16.28;62.69;100888.69;4952965;28;122620;-70
2023/01/02 03:38:08;;;;;;;9.13;3.05;;;;;;;16.27;62.67;100881.59;4942336;28;113073;-70
2023/01/02 03:40:45;;;;;;;7.85;3.03;;;;;;;16.26;62.65;100877.22;4955338;28;115633;-70
2023/01/02 03:43:20;;;;;;;7.03;2.72;;;;;;;16.26;62.51;100879.91;4952733;28;123380;-70
2023/01/02 03:46:00;;;;;;;11.05;3.17;;;;;;;16.25;62.54;100899.56;4954115;28;123499;-70
2023/01/02 03:48:39;;;;;;;6.90;2.90;;;;;;;16.23;62.53;100896.13;4955195;28;114589;-70
2023/01/02 03:51:06;;;;;;;10.32;2.78;;;;;;;16.23;62.47;100904.16;4952566;28;114105;-70
2023/01/02 03:53:35;;;;;;;6.15;3.03;;;;;;;16.23;62.62;100912.19;4950306;28;123708;-70
2023/01/02 03:56:16;;;;;;;13.85;3.22;;;;;;;16.23;62.59;100912.19;4954024;28;123604;-70
2023/01/02 03:59:08;;;;;;;8.35;2.75;;;;;;;16.23;62.54;100912.19;4944592;28;114121;-70
2023/01/02 04:01:46;;;;;;;8.00;3.03;;;;;;;16.23;62.81;100912.19;4937298;28;113032;-69
2023/01/02 04:04:26;;;;;;;8.18;3.03;;;;;;;16.24;62.76;100913.91;4946177;28;124647;-70
2023/01/02 04:07:00;;;;;;;9.10;3.03;;;;;;;16.23;62.74;100909.50;4946961;28;123969;-70
2023/01/02 04:09:31;;;;;;;8.40;3.20;;;;;;;16.24;62.59;100913.91;4947303;28;114039;-70
2023/01/02 04:12:10;;;;;;;5.50;2.90;;;;;;;16.24;62.86;100913.91;4945476;28;114255;-70
2023/01/02 04:14:48;;;;;;;8.77;2.58;;;;;;;16.23;62.66;100913.03;4965877;28;123743;-70
2023/01/02 04:17:19;;;;;;;6.07;2.80;;;;;;;16.23;62.83;100912.19;4950536;28;123956;-70
2023/01/02 04:19:50;;;;;;;7.03;2.90;;;;;;;16.24;62.72;100919.25;4949864;28;115657;-70
2023/01/02 04:22:24;;;;;;;10.93;3.15;;;;;;;16.23;62.73;100925.53;4960351;28;114039;-71
2023/01/02 04:25:06;;;;;;;10.13;2.83;;;;;;;16.24;62.68;100927.25;4955950;28;124210;-70
2023/01/02 04:27:43;;;;;;;7.47;2.70;;;;;;;16.23;62.70;100918.38;4954222;28;123944;-70
2023/01/02 04:30:10;;;;;;;6.80;2.80;;;;;;;16.24;62.65;100933.47;4949545;28;114142;-69
2023/01/02 04:32:41;;;;;;;8.70;2.83;;;;;;;16.25;62.67;100936.97;4952734;28;114419;-70
2023/01/02 04:35:12;;;;;;;5.30;2.97;;;;;;;16.25;62.86;100934.31;4959677;28;124575;-70
2023/01/02 04:37:42;;;;;;;7.00;2.90;;;;;;;16.26;62.79;100933.34;4959877;28;124514;-70
2023/01/02 04:40:15;;;;;;;9.73;3.13;;;;;;;16.25;62.60;100931.63;4954292;28;115240;-70
2023/01/02 04:42:44;;;;;;;9.02;2.95;;;;;;;16.24;62.96;100940.63;4951873;28;113512;-70
2023/01/02 04:45:11;;;;;;;7.05;3.03;;;;;;;16.24;62.87;100940.63;4953972;28;123538;-70
2023/01/02 04:47:39;;;;;;;8.43;3.00;;;;;;;16.21;63.03;100930.13;4957678;28;123911;-70
2023/01/02 04:50:07;;;;;;;7.38;2.65;;;;;;;16.22;62.89;100942.50;4958524;28;114500;-70
2023/01/02 04:52:34;;;;;;;9.93;3.03;;;;;;;16.20;62.72;100939.97;4957039;28;114035;-70
2023/01/02 04:55:08;;;;;;;7.72;3.15;;;;;;;16.18;62.87;100933.00;4954688;28;124236;-70
2023/01/02 04:57:36;;;;;;;13.10;2.70;;;;;;;16.17;62.86;100939.31;4953240;28;125180;-70
2023/01/02 05:00:07;;;;;;;7.15;3.00;;;;;;;16.14;62.95;100941.25;4953365;28;114457;-70
2023/01/02 05:02:35;;;;;;;8.15;2.88;;;;;;;16.13;63.03;100944.84;4950502;28;112916;-70
2023/01/02 05:05:04;;;;;;;5.22;2.88;;;;;;;16.13;62.94;100950.19;4961331;28;124489;-70
2023/01/02 05:07:32;;;;;;;9.10;3.20;;;;;;;16.14;63.00;100946.59;4962854;28;123741;-70
2023/01/02 05:09:59;;;;;;;6.32;2.80;;;;;;;16.13;62.75;100955.53;4958290;28;115404;-70
2023/01/02 05:12:26;;;;;;;7.07;2.72;;;;;;;16.12;62.92;100953.84;4963120;28;114941;-70
2023/01/02 05:14:54;;;;;;;5.82;2.60;;;;;;;16.12;63.03;100961.88;4958536;28;124520;-70
2023/01/02 05:17:21;;;;;;;6.20;2.55;;;;;;;16.13;63.05;100952.88;4953479;28;123985;-71
2023/01/02 05:19:48;;;;;;;5.57;2.58;;;;;;;16.13;62.90;100966.22;4954382;28;114229;-70
2023/01/02 05:25:00;;;;;;;6.35;2.95;;;;;;;16.14;62.88;100967.97;4954707;28;123808;-70
2023/01/02 05:27:27;;;;;;;6.97;2.60;;;;;;;16.13;62.61;100968.91;4950151;28;123263;-70
2023/01/02 05:29:54;;;;;;;5.68;2.17;;;;;;;16.15;62.96;100972.31;4954245;28;113998;-70
2023/01/02 05:32:21;;;;;;;5.75;2.65;;;;;;;16.15;62.90;100969.66;4966983;28;114995;-70
2023/01/02 05:34:48;;;;;;;6.25;2.80;;;;;;;16.15;62.65;100969.66;4960504;28;123940;-70
2023/01/02 05:37:15;;;;;;;6.63;2.88;;;;;;;16.15;62.75;100975.00;4954040;28;123965;-70
2023/01/02 05:39:42;;;;;;;7.70;2.70;;;;;;;16.18;62.80;100978.44;4959917;28;114599;-70
2023/01/02 05:42:09;;;;;;;8.07;2.70;;;;;;;16.19;62.63;100977.47;4956788;28;113422;-70
2023/01/02 05:44:36;;;;;;;7.00;2.65;;;;;;;16.21;62.70;100983.59;4947996;28;122710;-70
2023/01/02 05:47:03;;;;;;;5.47;2.25;;;;;;;16.21;62.72;100988.91;4955363;28;124864;-70
2023/01/02 05:49:31;;;;;;;5.88;2.75;;;;;;;16.22;62.66;100986.16;4952439;28;114134;-70
2023/01/02 05:51:58;;;;;;;5.47;2.33;;;;;;;16.21;62.57;100988.91;4948025;28;113976;-71
2023/01/02 05:54:25;;;;;;;8.88;2.55;;;;;;;16.23;62.52;100992.34;4952530;28;124816;-71
2023/01/02 05:56:52;;;;;;;6.30;2.50;;;;;;;16.24;62.58;100994.06;4957807;28;123770;-72
2023/01/02 05:59:19;;;;;;;5.13;2.15;;;;;;;16.25;62.57;100990.44;4954561;28;115328;-72
2023/01/02 06:01:46;;;;;;;5.00;2.35;;;;;;;16.24;62.40;100994.06;4956991;28;114764;-72
2023/01/02 06:04:13;;;;;;;6.55;2.28;;;;;;;16.24;62.41;100991.41;4957541;28;124269;-71
2023/01/02 06:06:46;;;;;;;6.88;2.40;;;;;;;16.24;62.74;100991.41;4946461;28;124192;-71
2023/01/02 06:09:14;;;;;;;5.45;2.47;;;;;;;16.25;62.29;101001.13;4945589;28;114089;-71
2023/01/02 06:11:42;;;;;;;8.18;2.17;;;;;;;16.26;62.38;100997.50;4962326;28;114095;-71
2023/01/02 06:14:09;;;;;;;8.88;2.63;;;;;;;16.27;62.30;101001.88;4955066;28;125277;-71
2023/01/02 06:16:37;;;;;;;5.25;2.40;;;;;;;16.27;62.43;101004.53;4956583;28;124407;-71
2023/01/02 06:19:05;;;;;;;5.60;2.67;;;;;;;16.28;62.22;101006.28;4952932;28;115118;-70
2023/01/02 06:21:33;;;;;;;8.00;2.42;;;;;;;16.27;62.38;101004.53;4950398;28;113231;-70
2023/01/02 06:24:00;;;;;;;4.20;2.20;;;;;;;16.27;62.32;101021.44;4954952;28;123102;-70
2023/01/02 06:26:28;;;;;;;6.85;2.20;;;;;;;16.27;62.38;101020.56;4956064;28;123802;-70
2023/01/02 06:29:01;;;;;;;7.20;2.35;;;;;;;16.27;62.42;101020.56;4951341;28;114446;-69
2023/01/02 06:31:28;;;;;;;5.15;2.80;;;;;;;16.27;62.43;101020.56;4961134;28;114266;-70
2023/01/02 06:33:58;;;;;;;5.72;2.30;;;;;;;16.27;62.30;101017.91;4953132;28;122613;-70
2023/01/02 06:36:29;;;;;;;5.80;2.25;;;;;;;16.26;62.22;101029.56;4955535;28;123565;-69
2023/01/02 06:38:56;;;;;;;6.60;2.30;;;;;;;16.25;62.45;101033.19;4953092;28;114418;-69
2023/01/02 06:41:24;;;;;;;8.43;2.80;;;;;;;16.25;62.43;101033.19;4952192;28;113097;-69
2023/01/02 06:43:51;;;;;;;6.28;2.55;;;;;;;16.21;62.44;101042.38;4951171;28;123066;-69
2023/01/02 06:46:21;;;;;;;5.15;2.40;;;;;;;16.20;62.38;101043.31;4948554;28;123821;-69
2023/01/02 06:48:49;;;;;;;6.88;2.25;;;;;;;16.17;62.73;101047.06;4938490;28;114991;-69
2023/01/02 06:51:21;;;;;;;4.45;2.20;;;;;;;16.14;62.79;101058.81;4953297;28;114460;-69
2023/01/02 06:53:49;;;;;;;7.85;2.65;;;;;;;16.12;62.68;101052.72;4955871;28;123176;-70
2023/01/02 06:56:18;;;;;;;8.05;3.03;;;;;;;16.10;62.73;101051.94;4953988;28;123674;-69
2023/01/02 06:58:45;;;;;;;4.80;2.30;;;;;;;16.09;62.96;101111.69;4954329;28;115083;-69
2023/01/02 07:01:21;;;;;;;2.97;1.30;;;;;;;16.04;62.61;101127.16;4958827;28;114120;-69
2023/01/02 07:03:48;;;;;;;3.13;1.30;;;;;;;15.94;62.21;101136.72;4959901;28;124019;-69
2023/01/02 07:06:20;;;;;;;4.05;1.30;;;;;;;15.83;62.11;101133.84;4955596;28;122936;-69
2023/01/02 07:08:48;;;;;;;1.75;0.80;;;;;;;15.73;62.11;101139.75;4951202;28;114864;-70
2023/01/02 07:11:18;;;;;;;2.08;0.63;;;;;;;15.60;61.24;101143.25;4950490;28;113514;-69
2023/01/02 07:13:47;;;;;;;0.63;0.57;;;;;;;15.47;61.44;101169.84;4954183;28;124130;-69
2023/01/02 07:16:17;;;;;;;2.25;0.60;;;;;;;15.34;61.44;101178.56;4955745;28;124293;-69
2023/01/02 07:18:45;;;;;;;1.90;0.63;;;;;;;15.20;61.29;101178.56;4959655;28;114418;-69
2023/01/02 07:21:14;;;;;;;0.93;0.80;;;;;;;15.09;61.37;101186.34;4952511;28;114809;-69
2023/01/02 07:23:41;;;;;;;1.20;0.63;;;;;;;14.98;61.63;101190.47;4951047;28;124752;-69
2023/01/02 07:26:09;;;;;;;1.58;0.60;;;;;;;14.88;61.41;101210.63;4946153;28;124337;-69
2023/01/02 07:28:38;;;;;;;1.55;0.60;;;;;;;14.80;61.27;101212.84;4954059;28;113120;-69
2023/01/02 07:31:16;;;;;;;0.77;0.63;;;;;;;14.73;61.56;101211.47;4950403;28;114045;-70
2023/01/02 07:33:43;;;;;;;0.93;0.75;;;;;;;14.65;61.74;101225.25;4963122;28;124061;-69
2023/01/02 07:36:14;;;;;;;1.38;0.60;;;;;;;14.57;61.70;101231.00;4950073;28;122529;-69
2023/01/02 07:38:42;;;;;;;1.42;0.80;;;;;;;14.52;61.71;101246.38;4944597;28;115648;-69
2023/01/02 07:41:17;;;;;;;1.25;0.90;;;;;;;14.46;61.79;101257.34;4955840;28;115145;-68
2023/01/02 07:43:47;;;;;;;1.00;0.80;;;;;;;14.38;61.62;101259.59;4956600;28;124027;-69
2023/01/02 07:46:17;;;;;;;3.00;1.23;;;;;;;14.32;61.93;101267.91;4948529;28;123639;-69
2023/01/02 07:48:45;;;;;;;1.50;1.20;;;;;;;14.28;62.00;101263.69;4951455;28;114099;-69
2023/01/02 07:51:13;;;;;;;1.55;1.20;;;;;;;14.21;62.22;101269.34;4952375;28;114342;-69
2023/01/02 07:53:47;;;;;;;2.67;1.87;;;;;;;14.16;61.68;101282.03;4960037;28;125073;-69
2023/01/02 07:56:14;;;;;;;2.20;1.80;;;;;;;14.14;62.08;101283.94;4945302;28;123478;-69
2023/01/02 07:58:41;;;;;;;3.20;2.08;;;;;;;14.11;62.27;101292.09;4952174;28;114022;-70
2023/01/02 08:01:11;;;;;;;3.03;2.47;;;;;;;14.08;62.29;101300.25;4947910;28;113100;-70
2023/01/02 08:03:39;;;;;;;3.83;2.78;;;;;;;14.06;62.45;101302.13;4951824;28;123038;-69
2023/01/02 08:06:15;;;;;;;3.50;2.97;;;;;;;14.04;62.28;101309.34;4956979;28;124352;-70
2023/01/02 08:08:42;;;;;;;;;;;;;;;14.01;62.45;101314.81;4950831;28;114347;-69
2023/01/02 08:11:21;;;;;;;3.65;3.10;;;;;;;13.97;62.38;101321.25;4951262;28;113931;-69
2023/01/02 08:13:50;;;;;;;4.13;2.03;;;;;;;13.95;62.39;101331.13;4952338;28;125243;-70
2023/01/02 08:16:20;;;;;;;2.55;1.55;;;;;;;13.93;62.55;101327.66;4954030;28;124584;-70
2023/01/02 08:18:50;;;;;;;2.38;1.63;;;;;;;13.93;62.47;101343.66;4938541;28;115001;-69
2023/01/02 08:21:17;;;;;;;5.30;2.05;;;;;;;13.92;62.53;101347.25;4956404;28;113038;-70
2023/01/02 08:23:44;;;;;;;3.45;1.98;;;;;;;13.92;62.51;101352.56;4952941;28;124001;-70
2023/01/02 08:26:11;;;;;;;2.92;2.00;;;;;;;13.93;62.54;101354.31;4958116;28;124541;-70
2023/01/02 08:28:40;;;;;;;2.72;2.00;;;;;;;13.93;62.53;101370.28;4976738;28;114880;-70
2023/01/02 08:31:12;;;;;;;3.28;2.03;;;;;;;13.93;62.63;101371.13;4959752;28;113925;-70
2023/01/02 08:33:40;;;;;;;3.55;2.03;;;;;;;13.93;62.52;101375.59;4961127;28;124531;-69
2023/01/02 08:36:08;;;;;;;3.17;2.00;;;;;;;13.91;62.51;101382.81;4964431;28;122914;-69
2023/01/02 08:38:35;;;;;;;2.92;1.92;;;;;;;13.91;62.58;101377.47;4965460;28;114813;-68
2023/01/02 08:41:02;;;;;;;3.47;1.80;;;;;;;13.90;62.63;101387.28;4961878;28;113835;-70
2023/01/02 08:43:33;;;;;;;3.10;1.63;;;;;;;13.91;62.64;101389.00;4945751;28;125297;-70
2023/01/02 08:46:05;;;;;;;2.88;1.92;;;;;;;13.90;62.61;101397.94;4961734;28;123473;-70
2023/01/02 08:48:33;;;;;;;3.28;1.85;;;;;;;13.89;62.63;101406.00;4957993;28;113461;-70
2023/01/02 08:51:00;;;;;;;2.47;1.52;;;;;;;13.89;62.83;101411.31;4960649;28;114934;-70
2023/01/02 08:53:28;;;;;;;3.00;1.88;;;;;;;13.88;62.60;101409.56;4953125;28;124000;-70
2023/01/02 08:56:15;;;;;;;3.40;1.60;;;;;;;13.85;62.67;101409.75;4952212;28;123819;-70
2023/01/02 08:58:42;;;;;;;2.53;1.83;;;;;;;13.83;62.62;101418.66;4951372;28;114287;-70
2023/01/02 09:01:18;;;;;;;2.90;1.85;;;;;;;13.79;62.64;101416.25;4950664;28;114271;-70
2023/01/02 09:03:45;;;;;;;3.30;1.60;;;;;;;13.76;62.64;101427.88;4951268;28;124330;-70
2023/01/02 09:06:12;;;;;;;2.70;1.50;;;;;;;13.73;62.48;101427.16;4950730;28;123850;-69
2023/01/02 09:08:47;;;;;;;;;;;;;;;13.68;62.57;101430.06;4948772;28;113996;-69
2023/01/02 09:11:21;;;;;;;2.33;1.40;;;;;;;13.66;62.53;101442.59;4964154;28;113892;-68
2023/01/02 09:13:49;;;;;;;3.33;1.73;;;;;;;13.64;62.63;101449.78;4950695;28;125254;-69
2023/01/02 09:16:16;;;;;;;2.92;1.65;;;;;;;13.62;62.71;101451.66;4934700;28;124998;-69
2023/01/02 09:18:43;;;;;;;4.13;2.25;;;;;;;13.62;62.58;101454.34;4947542;28;115158;-69
2023/01/02 09:21:10;;;;;;;4.28;2.25;;;;;;;13.62;62.65;101451.66;4940726;28;114990;-69
2023/01/02 09:23:37;;;;;;;4.00;2.35;;;;;;;13.63;62.78;101448.06;4940287;28;123221;-69
2023/01/02 09:26:06;;;;;;;3.85;2.20;;;;;;;13.65;62.78;101461.28;4949886;28;124055;-69
2023/01/02 09:28:35;;;;;;;3.45;2.53;;;;;;;13.65;62.70;101461.28;4947993;28;114144;-69
2023/01/02 09:31:06;;;;;;;3.17;2.13;;;;;;;13.64;62.78;101476.41;4951557;28;114163;-69
2023/01/02 09:33:40;;;;;;;3.22;2.10;;;;;;;13.65;62.88;101479.94;4949607;28;124096;-69
2023/01/02 09:36:09;;;;;;;2.92;1.90;;;;;;;13.65;62.82;101494.09;4951450;28;122714;-68
2023/01/02 09:38:36;;;;;;;3.80;2.03;;;;;;;13.63;62.78;101498.63;4957797;28;113982;-69
2023/01/02 09:41:36;;;;;;;2.75;1.83;;;;;;;13.63;62.71;101506.63;4963644;28;113313;-69
2023/01/02 09:44:29;;;;;;;3.72;1.95;;;;;;;13.63;62.60;101511.94;4948951;28;123825;-69
2023/01/02 09:47:02;;;;;;;4.15;2.08;;;;;;;13.63;62.74;101511.94;4952685;28;124340;-68
2023/01/02 09:49:40;;;;;;;3.63;2.10;;;;;;;13.66;62.63;101516.28;4930915;28;113420;-69
2023/01/02 09:52:14;;;;;;;3.30;1.95;;;;;;;13.68;62.81;101525.91;4941504;28;113567;-68
2023/01/02 09:54:41;;;;;;;2.90;1.90;;;;;;;13.71;62.80;101531.09;4949287;28;124815;-69
2023/01/02 09:57:35;;;;;;;2.72;1.80;;;;;;;13.72;62.65;101532.81;4949042;28;122577;-69
2023/01/02 10:00:20;;;;;;;3.80;2.10;;;;;;;13.74;62.54;101530.94;4946912;28;114396;-69
2023/01/02 10:03:30;;;;;;;3.55;2.60;;;;;;;13.77;62.62;101540.59;4951370;28;113631;-69
2023/01/02 10:06:20;;;;;;;4.75;2.38;;;;;;;13.82;62.73;101530.56;4954150;28;124156;-69
2023/01/02 10:09:06;;;;;;;3.97;2.47;;;;;;;13.83;62.65;101530.50;4956798;28;124227;-69
2023/01/02 10:11:44;;;;;;;3.65;2.38;;;;;;;13.87;62.39;101535.69;4936026;28;114085;-69
2023/01/02 10:14:23;;;;;;;5.32;2.70;;;;;;;13.89;62.56;101533.81;4964168;28;114932;-68
2023/01/02 10:17:04;;;;;;;4.90;2.50;;;;;;;13.90;62.62;101524.88;4957679;28;124636;-69
2023/01/02 10:19:37;;;;;;;3.65;2.88;;;;;;;13.91;62.41;101529.28;4953311;28;124522;-69
2023/01/02 10:22:08;;;;;;;3.78;2.67;;;;;;;13.91;62.14;101538.13;4963980;28;114449;-69
2023/01/02 10:24:44;;;;;;;4.45;2.50;;;;;;;13.91;62.22;101558.56;4940916;28;112836;-69
2023/01/02 10:27:16;;;;;;;5.10;2.50;;;;;;;13.90;62.05;101562.16;4946949;28;123939;-68
2023/01/02 10:30:12;;;;;;;5.25;2.50;;;;;;;13.88;62.06;101564.03;4933409;28;123691;-69
2023/01/02 10:32:42;;;;;;;;;;;;;;;13.83;62.00;101556.25;4936071;28;114510;-69
2023/01/02 10:35:22;;;;;;;3.10;2.30;;;;;;;13.80;61.95;101546.59;4939485;28;113847;-69
2023/01/02 10:37:49;;;;;;;4.60;2.40;;;;;;;13.76;62.02;101547.69;4948276;28;123875;-69
2023/01/02 10:40:16;;;;;;;4.53;2.40;;;;;;;13.76;61.95;101539.69;4949902;28;122923;-69
2023/01/02 10:42:44;;;;;;;6.65;2.33;;;;;;;13.76;61.91;101534.38;4950577;28;114090;-69
2023/01/02 10:45:14;;;;;;;4.68;2.55;;;;;;;13.78;62.05;101537.81;4950652;28;114507;-69
2023/01/02 10:47:43;;;;;;;6.80;2.50;;;;;;;13.81;62.04;101543.03;4951432;28;123759;-69
2023/01/02 10:50:28;;;;;;;4.68;2.20;;;;;;;13.83;62.04;101557.13;4949152;28;123527;-69
2023/01/02 10:53:19;;;;;;;4.78;2.30;;;;;;;13.86;61.88;101556.09;4948190;28;113126;-69
2023/01/02 10:55:46;;;;;;;3.92;1.95;;;;;;;13.86;61.75;101560.56;4949636;28;113723;-70
2023/01/02 10:58:21;;;;;;;4.65;2.00;;;;;;;13.86;61.81;101571.22;4948553;28;123901;-69
2023/01/02 11:01:12;;;;;;;3.28;1.95;;;;;;;13.87;61.71;101572.97;4952136;28;123612;-70
2023/01/02 11:03:39;;;;;;;4.22;2.10;;;;;;;13.86;61.71;101571.22;4931087;28;116512;-69
2023/01/02 11:06:18;;;;;;;4.13;2.05;;;;;;;13.83;61.46;101573.09;4946992;28;115130;-70
2023/01/02 11:09:00;;;;;;;3.90;2.10;;;;;;;13.82;61.61;101565.19;4960784;28;123903;-69
2023/01/02 11:11:30;;;;;;;4.20;2.00;;;;;;;13.80;61.47;101562.56;4947091;28;122991;-70
2023/01/02 11:14:07;;;;;;;4.43;2.30;;;;;;;13.80;61.44;101578.56;4950720;28;96986;-70
2023/01/02 11:16:39;;;;;;;5.03;2.20;;;;;;;13.79;61.43;101587.50;4941069;28;114596;-70
2023/01/02 11:19:17;;;;;;;4.25;2.50;;;;;;;13.79;61.45;101598.16;4942669;28;124597;-70
2023/01/02 11:21:51;;;;;;;3.38;2.13;;;;;;;13.80;61.54;101594.53;4956794;28;124288;-70
2023/01/02 11:24:24;;;;;;;5.78;2.55;;;;;;;13.81;61.51;101593.59;4950728;28;115872;-72
2023/01/02 11:26:52;;;;;;;6.20;2.40;;;;;;;13.82;61.54;101603.34;4949434;28;113895;-70
2023/01/02 11:29:28;;;;;;;4.10;2.25;;;;;;;13.83;61.45;101605.06;4951139;28;124922;-70
2023/01/02 11:31:58;;;;;;;3.85;2.15;;;;;;;13.84;61.36;101616.56;4953663;28;124193;-70
2023/01/02 11:34:35;;;;;;;4.60;2.35;;;;;;;13.83;61.33;101621.03;4953009;28;113857;-70
2023/01/02 11:37:23;;;;;;;4.32;2.50;;;;;;;13.84;61.25;101616.56;4946125;28;113540;-70
2023/01/02 11:40:28;;;;;;;4.78;2.70;;;;;;;13.86;61.28;101613.81;4944166;28;124291;-70
2023/01/02 11:45:45;;;;;;;4.85;2.70;;;;;;;13.85;61.21;101617.44;4948414;28;114359;-70